Time;durP1;ratioP1;P1;durP2;ratioP2;P2;SDS_P1;SDS_P2;PMS_P1;PMS_P2;Temp;Humidity;BMP_temperature;BMP_pressure;BME280_temperature;BME280_humidity;BME280_pressure;Samples;Min_cycle;Max_cycle;Signal;HPM_P1;HPM_P2
2021/08/11 00:00:29;;;;;;;6.57;3.25;;;18.90;99.90;;;;;;5055474;28;20030;-82
2021/08/11 00:02:55;;;;;;;6.72;3.35;;;;;;;;;;5051159;28;20030;-82
2021/08/11 00:05:21;;;;;;;5.85;2.88;;;;;;;;;;5064928;28;20032;-79
2021/08/11 00:07:47;;;;;;;8.35;3.53;;;;;;;;;;5069828;28;20033;-81
2021/08/11 00:10:13;;;;;;;6.80;3.30;;;;;;;;;;5082154;28;20100;-78
2021/08/11 00:12:38;;;;;;;8.73;4.47;;;18.70;99.90;;;;;;5065320;28;20095;-80
2021/08/11 00:15:05;;;;;;;5.85;3.30;;;;;;;;;;5058444;28;20491;-81
2021/08/11 00:17:31;;;;;;;6.03;3.58;;;;;;;;;;5060908;28;20060;-81
2021/08/11 00:19:57;;;;;;;8.18;3.25;;;18.70;99.90;;;;;;5058279;28;20035;-79
2021/08/11 00:22:22;;;;;;;8.52;3.40;;;18.70;99.90;;;;;;5069691;28;20111;-80
2021/08/11 00:24:48;;;;;;;7.72;4.95;;;18.70;99.90;;;;;;5057679;28;20042;-78
2021/08/11 00:27:14;;;;;;;16.13;7.30;;;18.70;99.90;;;;;;5056135;28;20435;-80
2021/08/11 00:29:39;;;;;;;12.27;4.20;;;18.70;99.90;;;;;;5057592;28;20036;-83
2021/08/11 00:32:05;;;;;;;4.97;2.78;;;18.70;99.90;;;;;;5061843;28;20605;-81
2021/08/11 00:34:31;;;;;;;7.18;3.38;;;18.70;99.90;;;;;;5056583;28;20086;-81
2021/08/11 00:36:57;;;;;;;9.50;3.42;;;;;;;;;;5056051;28;21845;-80
2021/08/11 00:39:22;;;;;;;6.03;2.72;;;18.70;99.90;;;;;;5054171;28;20029;-81
2021/08/11 00:41:48;;;;;;;5.47;3.28;;;18.60;99.90;;;;;;5053779;28;20052;-81
2021/08/11 00:44:14;;;;;;;4.53;2.90;;;18.60;99.90;;;;;;5058254;28;20154;-81
2021/08/11 00:46:41;;;;;;;7.15;3.00;;;18.50;99.90;;;;;;5061540;28;20029;-80
2021/08/11 00:49:11;;;;;;;6.07;3.05;;;18.60;99.90;;;;;;5070085;28;20497;-81
2021/08/11 00:51:38;;;;;;;7.22;3.25;;;18.60;99.90;;;;;;5068829;28;20049;-82
2021/08/11 00:54:05;;;;;;;6.00;2.83;;;18.50;99.90;;;;;;5061210;28;20056;-82
2021/08/11 00:56:33;;;;;;;6.32;3.40;;;18.40;99.90;;;;;;5053685;28;20021;-79
2021/08/11 00:59:01;;;;;;;5.97;3.05;;;18.40;99.90;;;;;;5050070;28;20075;-80
2021/08/11 01:01:28;;;;;;;5.18;3.25;;;;;;;;;;5058271;28;20017;-80
2021/08/11 01:03:55;;;;;;;8.38;3.10;;;18.40;99.90;;;;;;5063392;28;20028;-80
2021/08/11 01:06:22;;;;;;;5.63;3.42;;;;;;;;;;5057156;28;20013;-80
2021/08/11 01:08:48;;;;;;;19.20;10.23;;;;;;;;;;5064581;28;20017;-81
2021/08/11 01:11:17;;;;;;;7.90;3.80;;;18.40;99.90;;;;;;5059002;28;20037;-82
2021/08/11 01:13:43;;;;;;;6.63;4.43;;;18.40;99.90;;;;;;5061573;28;20020;-81
2021/08/11 01:16:09;;;;;;;10.15;4.32;;;;;;;;;;5054070;28;20024;-80
2021/08/11 01:18:38;;;;;;;8.05;4.50;;;18.50;99.90;;;;;;5052202;28;20029;-80
2021/08/11 01:21:34;;;;;;;7.05;3.70;;;18.50;99.90;;;;;;5056913;28;20025;-80
2021/08/11 01:24:10;;;;;;;7.70;3.78;;;18.40;99.90;;;;;;5068578;28;20040;-80
2021/08/11 01:27:00;;;;;;;6.55;3.15;;;21.00;99.90;;;;;;5053042;28;20022;-80
2021/08/11 01:29:59;;;;;;;5.78;2.85;;;18.40;99.90;;;;;;5052406;28;20040;-81
2021/08/11 01:32:51;;;;;;;7.18;3.75;;;18.30;99.90;;;;;;5057903;28;20031;-82
2021/08/11 01:35:19;;;;;;;6.18;3.83;;;18.40;99.90;;;;;;5054425;28;20029;-81
2021/08/11 01:37:50;;;;;;;6.28;3.40;;;18.30;99.90;;;;;;5054043;28;20044;-82
2021/08/11 01:40:22;;;;;;;4.28;2.92;;;18.30;99.90;;;;;;5051139;28;20029;-82
2021/08/11 01:42:50;;;;;;;7.47;3.50;;;18.30;99.90;;;;;;5060726;28;20032;-81
2021/08/11 01:45:20;;;;;;;4.88;3.13;;;18.30;99.90;;;;;;5055763;28;20057;-82
2021/08/11 01:48:06;;;;;;;;;;;18.30;99.90;;;;;;5062402;28;20049;-81
2021/08/11 01:50:36;;;;;;;7.07;3.38;;;18.30;99.90;;;;;;5059173;28;19919;-82
2021/08/11 01:53:05;;;;;;;10.68;4.50;;;19.00;99.90;;;;;;5058243;28;20029;-80
2021/08/11 01:55:31;;;;;;;5.55;3.40;;;18.30;99.90;;;;;;5060243;28;20130;-82
2021/08/11 01:57:57;;;;;;;5.55;2.95;;;18.20;99.90;;;;;;5078566;28;20029;-81
2021/08/11 02:00:24;;;;;;;7.05;3.95;;;18.20;99.90;;;;;;5054236;28;20029;-80
2021/08/11 02:02:51;;;;;;;7.90;3.65;;;18.20;99.90;;;;;;5045876;28;20029;-80
2021/08/11 02:05:17;;;;;;;6.10;3.15;;;;;;;;;;5057791;28;20029;-81
2021/08/11 02:07:43;;;;;;;4.47;2.90;;;18.20;99.90;;;;;;5047246;28;20124;-80
2021/08/11 02:10:11;;;;;;;8.60;3.40;;;18.20;99.90;;;;;;5053959;28;20083;-82
2021/08/11 02:12:37;;;;;;;6.75;3.45;;;;;;;;;;5055297;28;20039;-81
2021/08/11 02:15:08;;;;;;;5.75;3.78;;;18.10;99.90;;;;;;5064058;28;20106;-80
2021/08/11 02:17:37;;;;;;;6.00;2.90;;;18.10;99.90;;;;;;5063973;28;20568;-79
2021/08/11 02:20:08;;;;;;;5.78;3.80;;;18.10;99.90;;;;;;5060747;28;20030;-80
2021/08/11 02:22:33;;;;;;;5.80;3.13;;;18.10;99.90;;;;;;5064387;28;20371;-80
2021/08/11 02:25:01;;;;;;;5.88;2.97;;;18.10;99.90;;;;;;5062329;28;20036;-80
2021/08/11 02:27:32;;;;;;;5.28;3.45;;;18.00;99.90;;;;;;5073743;28;20096;-83
2021/08/11 02:30:10;;;;;;;6.65;3.15;;;18.00;99.90;;;;;;5049646;28;20393;-79
2021/08/11 02:32:38;;;;;;;5.10;3.10;;;18.00;99.90;;;;;;5051975;28;20033;-80
2021/08/11 02:35:18;;;;;;;5.50;3.15;;;18.00;99.90;;;;;;5060152;28;20043;-81
2021/08/11 02:38:04;;;;;;;10.13;3.65;;;17.90;99.90;;;;;;5068403;28;20029;-81
2021/08/11 02:40:54;;;;;;;5.45;3.20;;;17.90;99.90;;;;;;5058122;28;20033;-80
2021/08/11 02:43:30;;;;;;;6.65;3.40;;;17.90;99.90;;;;;;5057672;28;20021;-82
2021/08/11 02:46:10;;;;;;;9.30;3.70;;;17.80;99.90;;;;;;5051052;28;22225;-82
2021/08/11 02:48:37;;;;;;;5.20;3.30;;;17.80;99.90;;;;;;5057404;28;20033;-80
2021/08/11 02:51:05;;;;;;;4.55;2.83;;;17.90;99.90;;;;;;5060339;28;20029;-82
2021/08/11 02:53:33;;;;;;;5.47;3.15;;;17.70;99.90;;;;;;5064890;28;20032;-82
2021/08/11 02:55:59;;;;;;;5.82;3.53;;;17.80;99.90;;;;;;5065441;28;20025;-80
2021/08/11 02:58:26;;;;;;;6.70;3.67;;;17.70;99.90;;;;;;5070216;28;20462;-80
2021/08/11 03:00:53;;;;;;;6.78;3.50;;;17.70;99.90;;;;;;5057264;28;20037;-81
2021/08/11 03:03:20;;;;;;;7.88;3.47;;;17.70;99.90;;;;;;5054320;28;20021;-81
2021/08/11 03:05:46;;;;;;;6.72;4.57;;;17.60;99.90;;;;;;5059658;28;20482;-82
2021/08/11 03:08:12;;;;;;;7.45;3.58;;;17.60;99.90;;;;;;5052798;28;20025;-78
2021/08/11 03:10:39;;;;;;;5.88;2.92;;;17.50;99.90;;;;;;5058730;28;20035;-78
2021/08/11 03:13:06;;;;;;;6.07;3.17;;;17.50;99.90;;;;;;5071222;28;20116;-81
2021/08/11 03:15:33;;;;;;;7.43;3.40;;;;;;;;;;5056303;28;20029;-79
2021/08/11 03:17:59;;;;;;;5.10;3.13;;;;;;;;;;5056272;28;20037;-82
2021/08/11 03:20:25;;;;;;;6.03;3.15;;;;;;;;;;5060588;28;20036;-83
2021/08/11 03:22:51;;;;;;;6.07;3.30;;;;;;;;;;5072092;28;20434;-82
2021/08/11 03:25:17;;;;;;;5.18;2.90;;;;;;;;;;5046463;28;20066;-80
2021/08/11 03:27:43;;;;;;;6.82;3.28;;;17.40;99.90;;;;;;5054230;28;20107;-83
2021/08/11 03:30:10;;;;;;;5.50;3.50;;;;;;;;;;5063563;28;20083;-83
2021/08/11 03:32:36;;;;;;;4.85;2.88;;;;;;;;;;5057602;28;20036;-84
2021/08/11 03:35:01;;;;;;;7.53;3.95;;;17.50;99.90;;;;;;5059538;28;20036;-83
2021/08/11 03:37:27;;;;;;;6.18;3.00;;;;;;;;;;5059148;28;20075;-85
2021/08/11 03:39:55;;;;;;;6.95;3.35;;;17.50;99.90;;;;;;5057159;28;20159;-83
2021/08/11 03:42:23;;;;;;;6.53;3.47;;;17.40;99.90;;;;;;5060130;28;20033;-82
2021/08/11 03:44:49;;;;;;;5.63;3.35;;;17.50;99.90;;;;;;5056917;28;20033;-80
2021/08/11 03:47:14;;;;;;;7.05;3.85;;;18.50;99.90;;;;;;5058961;28;20028;-78
2021/08/11 03:49:40;;;;;;;8.57;3.83;;;17.50;99.90;;;;;;5052805;28;20029;-83
2021/08/11 03:52:06;;;;;;;7.70;3.30;;;17.50;99.90;;;;;;5063891;28;20037;-82
2021/08/11 03:54:31;;;;;;;5.95;3.38;;;17.50;99.90;;;;;;5059839;28;20084;-83
2021/08/11 03:56:57;;;;;;;7.13;3.63;;;17.50;99.90;;;;;;5062171;28;20028;-82
2021/08/11 03:59:23;;;;;;;7.07;3.63;;;17.50;99.90;;;;;;5071190;28;20032;-81
2021/08/11 04:01:51;;;;;;;6.00;3.38;;;17.60;99.90;;;;;;5056191;28;20040;-78
2021/08/11 04:04:17;;;;;;;6.90;3.75;;;;;;;;;;5045826;28;20100;-81
2021/08/11 04:06:43;;;;;;;7.07;4.10;;;;;;;;;;5062478;28;20045;-85
2021/08/11 04:09:09;;;;;;;7.88;3.90;;;;;;;;;;5054547;28;20016;-82
2021/08/11 04:11:35;;;;;;;7.53;3.80;;;;;;;;;;5060949;28;20063;-83
2021/08/11 04:14:01;;;;;;;6.47;3.80;;;;;;;;;;5059610;28;20029;-82
2021/08/11 04:16:27;;;;;;;8.30;3.75;;;;;;;;;;5057404;28;20040;-81
2021/08/11 04:18:53;;;;;;;7.22;4.20;;;;;;;;;;5055617;28;20492;-83
2021/08/11 04:21:20;;;;;;;8.35;4.00;;;;;;;;;;5057528;28;20025;-81
2021/08/11 04:23:46;;;;;;;8.70;3.78;;;;;;;;;;5055701;28;20044;-80
2021/08/11 04:26:12;;;;;;;5.68;3.70;;;;;;;;;;5057318;28;20021;-86
2021/08/11 04:28:38;;;;;;;9.80;3.65;;;17.60;99.90;;;;;;5057919;28;20033;-84
2021/08/11 04:31:04;;;;;;;7.43;4.07;;;17.60;99.90;;;;;;5061722;28;20039;-81
2021/08/11 04:33:29;;;;;;;7.45;3.25;;;17.60;99.90;;;;;;5051805;28;20364;-83
2021/08/11 04:35:55;;;;;;;9.70;3.85;;;17.50;99.90;;;;;;5056310;28;20284;-80
2021/08/11 04:38:21;;;;;;;5.40;3.40;;;;;;;;;;5054043;28;20028;-81
2021/08/11 04:40:47;;;;;;;12.38;4.03;;;;;;;;;;5047824;28;20029;-81
2021/08/11 04:43:13;;;;;;;8.05;3.72;;;17.60;99.90;;;;;;5055959;28;20017;-80
2021/08/11 04:45:43;;;;;;;7.10;3.97;;;17.70;99.90;;;;;;5049507;28;20048;-81
2021/08/11 04:48:09;;;;;;;9.80;3.67;;;17.60;99.90;;;;;;5054826;28;20036;-82
2021/08/11 04:50:35;;;;;;;6.68;3.63;;;;;;;;;;5051713;28;20033;-82
2021/08/11 04:53:02;;;;;;;5.85;3.75;;;;;;;;;;5057946;28;20041;-83
2021/08/11 04:55:28;;;;;;;6.60;3.58;;;;;;;;;;5065864;28;20028;-81
2021/08/11 04:57:54;;;;;;;8.85;3.58;;;;;;;;;;5058315;28;20077;-83
2021/08/11 05:00:20;;;;;;;7.47;3.67;;;;;;;;;;5058205;28;22474;-83
2021/08/11 05:02:45;;;;;;;7.53;3.70;;;17.60;99.90;;;;;;5057107;28;20075;-82
2021/08/11 05:05:11;;;;;;;5.72;3.30;;;;;;;;;;5056829;28;20025;-82
2021/08/11 05:07:37;;;;;;;7.20;3.47;;;;;;;;;;5054908;28;20121;-80
2021/08/11 05:10:03;;;;;;;7.13;3.40;;;;;;;;;;5071068;28;20483;-82
2021/08/11 05:12:30;;;;;;;6.53;3.47;;;17.80;99.90;;;;;;5064061;28;20048;-77
2021/08/11 05:14:56;;;;;;;7.75;3.88;;;;;;;;;;5052887;28;20530;-79
2021/08/11 05:17:22;;;;;;;4.95;3.42;;;;;;;;;;5049346;28;20025;-80
2021/08/11 05:19:52;;;;;;;6.32;3.88;;;17.90;99.90;;;;;;5048986;28;20049;-81
2021/08/11 05:22:22;;;;;;;7.15;3.63;;;;;;;;;;5056963;28;20033;-82
2021/08/11 05:24:48;;;;;;;6.22;3.38;;;;;;;;;;5057727;28;20033;-80
2021/08/11 05:27:15;;;;;;;5.35;3.40;;;18.00;99.90;;;;;;5057915;28;20056;-79
2021/08/11 05:29:43;;;;;;;5.95;3.58;;;18.00;99.90;;;;;;5060735;28;20052;-80
2021/08/11 05:32:09;;;;;;;7.30;3.45;;;18.10;99.90;;;;;;5057493;28;20064;-82
2021/08/11 05:34:35;;;;;;;10.15;3.50;;;;;;;;;;5052979;28;20021;-82
2021/08/11 05:37:01;;;;;;;7.47;4.00;;;;;;;;;;5046215;28;20068;-82
2021/08/11 05:39:27;;;;;;;6.47;3.70;;;;;;;;;;5054902;28;20028;-81
2021/08/11 05:41:53;;;;;;;6.07;3.50;;;;;;;;;;5056823;28;20043;-80
2021/08/11 05:44:19;;;;;;;6.70;3.65;;;;;;;;;;5060555;28;20049;-83
2021/08/11 05:46:46;;;;;;;6.25;3.83;;;;;;;;;;5054609;28;20024;-81
2021/08/11 05:49:12;;;;;;;7.45;3.90;;;;;;;;;;5069506;28;20044;-81
2021/08/11 05:51:38;;;;;;;6.53;3.95;;;;;;;;;;5060350;28;20029;-82
2021/08/11 05:54:05;;;;;;;7.97;4.03;;;18.80;99.90;;;;;;5061184;28;20028;-81
2021/08/11 05:56:31;;;;;;;7.40;4.70;;;;;;;;;;5057780;28;20039;-81
2021/08/11 05:58:57;;;;;;;5.97;3.90;;;;;;;;;;5054037;28;20034;-82
2021/08/11 06:01:23;;;;;;;7.47;3.70;;;;;;;;;;5059377;28;20021;-82
2021/08/11 06:04:00;;;;;;;10.68;4.57;;;18.70;99.90;;;;;;5051188;28;20021;-79
2021/08/11 06:06:27;;;;;;;6.80;3.95;;;18.70;99.90;;;;;;5068136;28;20021;-82
2021/08/11 06:08:54;;;;;;;11.07;4.03;;;19.00;99.90;;;;;;5060472;28;20103;-81
2021/08/11 06:11:20;;;;;;;7.13;4.07;;;;;;;;;;5055812;28;20079;-82
2021/08/11 06:13:46;;;;;;;10.50;3.95;;;;;;;;;;5055027;28;20037;-82
2021/08/11 06:16:12;;;;;;;7.80;3.80;;;;;;;;;;5057086;28;20083;-82
2021/08/11 06:18:38;;;;;;;9.02;4.03;;;;;;;;;;5066701;28;20036;-80
2021/08/11 06:21:04;;;;;;;8.95;4.50;;;;;;;;;;5059890;28;20033;-83
2021/08/11 06:23:30;;;;;;;9.43;4.85;;;;;;;;;;5056688;28;20025;-83
2021/08/11 06:25:56;;;;;;;8.20;3.72;;;;;;;;;;5056167;28;20017;-82
2021/08/11 06:28:22;;;;;;;5.85;3.72;;;19.30;99.90;;;;;;5059039;28;20113;-82
2021/08/11 06:30:48;;;;;;;8.23;3.90;;;;;;;;;;5054057;28;20056;-84
2021/08/11 06:33:14;;;;;;;9.63;3.90;;;;;;;;;;5057402;28;20032;-82
2021/08/11 06:35:40;;;;;;;7.03;3.88;;;;;;;;;;5053849;28;20037;-78
2021/08/11 06:38:07;;;;;;;7.95;3.60;;;19.70;99.90;;;;;;5055274;28;20018;-82
2021/08/11 06:40:38;;;;;;;6.82;3.63;;;19.90;99.90;;;;;;5052807;28;20021;-84
2021/08/11 06:43:04;;;;;;;9.95;4.30;;;;;;;;;;5055907;28;20024;-78
2021/08/11 06:45:30;;;;;;;8.40;4.45;;;;;;;;;;5059516;28;20540;-83
2021/08/11 06:47:56;;;;;;;8.68;4.00;;;20.10;99.90;;;;;;5060749;28;20449;-86
2021/08/11 06:50:22;;;;;;;8.02;4.30;;;;;;;;;;5060032;28;20025;-83
2021/08/11 06:52:48;;;;;;;6.60;3.83;;;;;;;;;;5054177;28;20131;-83
2021/08/11 06:55:16;;;;;;;6.32;3.63;;;20.70;99.90;;;;;;5059709;28;20044;-81
2021/08/11 06:57:46;;;;;;;6.90;3.92;;;;;;;;;;5066007;28;20026;-80
2021/08/11 07:00:12;;;;;;;6.97;3.95;;;20.70;99.90;;;;;;5063176;28;20053;-82
2021/08/11 07:02:38;;;;;;;6.53;3.55;;;;;;;;;;5056553;28;20120;-85
2021/08/11 07:05:04;;;;;;;6.70;3.80;;;20.70;99.90;;;;;;5057504;28;20036;-83
2021/08/11 07:07:30;;;;;;;8.25;3.63;;;;;;;;;;5056334;28;20021;-80
2021/08/11 07:09:57;;;;;;;7.13;3.75;;;20.80;99.90;;;;;;5054884;28;20578;-84
2021/08/11 07:12:23;;;;;;;11.43;3.90;;;;;;;;;;5054132;28;20025;-80
2021/08/11 07:14:49;;;;;;;6.68;3.75;;;;;;;;;;5044281;28;20037;-83
2021/08/11 07:17:15;;;;;;;7.60;4.03;;;21.10;99.90;;;;;;5056376;28;20083;-78
2021/08/11 07:19:41;;;;;;;13.48;4.70;;;;;;;;;;5056533;28;20060;-81
2021/08/11 07:22:09;;;;;;;8.32;3.63;;;21.20;99.90;;;;;;5056214;28;20100;-81
2021/08/11 07:24:35;;;;;;;7.60;3.35;;;21.30;99.90;;;;;;5049969;28;20026;-81
2021/08/11 07:27:00;;;;;;;8.55;3.88;;;21.50;99.90;;;;;;5057062;28;20048;-83
2021/08/11 07:29:26;;;;;;;6.45;3.40;;;;;;;;;;5052625;28;20071;-80
2021/08/11 07:31:52;;;;;;;6.93;3.63;;;;;;;;;;5052059;28;20033;-82
2021/08/11 07:34:18;;;;;;;6.07;3.60;;;;;;;;;;5051444;28;20037;-84
2021/08/11 07:36:44;;;;;;;7.15;3.88;;;21.80;99.90;;;;;;5052842;28;20031;-81
2021/08/11 07:39:10;;;;;;;6.63;3.85;;;;;;;;;;5055268;28;20129;-82
2021/08/11 07:41:36;;;;;;;9.68;3.50;;;;;;;;;;5051053;28;20043;-80
2021/08/11 07:44:02;;;;;;;7.38;4.30;;;22.10;99.90;;;;;;5066805;28;20396;-81
2021/08/11 07:46:28;;;;;;;8.50;3.85;;;;;;;;;;5061465;28;20167;-80
2021/08/11 07:48:54;;;;;;;6.07;3.47;;;22.40;99.90;;;;;;5054228;28;20086;-78
2021/08/11 07:51:19;;;;;;;6.75;4.07;;;22.50;99.90;;;;;;5056130;28;20506;-80
2021/08/11 07:53:45;;;;;;;5.30;2.97;;;22.50;99.90;;;;;;5054469;28;20029;-81
2021/08/11 07:56:11;;;;;;;8.30;3.28;;;;;;;;;;5068269;28;20418;-83
2021/08/11 07:58:37;;;;;;;7.55;3.47;;;;;;;;;;5059368;28;20033;-81
2021/08/11 08:01:03;;;;;;;5.63;2.80;;;;;;;;;;5070477;28;20040;-78
2021/08/11 08:03:29;;;;;;;5.40;2.60;;;;;;;;;;5060293;28;20032;-82
2021/08/11 08:05:55;;;;;;;4.85;2.90;;;;;;;;;;5049774;28;20032;-80
2021/08/11 08:08:21;;;;;;;5.38;3.28;;;;;;;;;;5054380;28;20049;-84
2021/08/11 08:10:47;;;;;;;7.05;3.25;;;;;;;;;;5068484;28;20510;-81
2021/08/11 08:13:13;;;;;;;5.22;2.65;;;;;;;;;;5056120;28;20041;-80
2021/08/11 08:15:39;;;;;;;5.70;3.10;;;;;;;;;;5054383;28;20040;-79
2021/08/11 08:18:05;;;;;;;6.07;2.88;;;;;;;;;;5055420;28;20029;-84
2021/08/11 08:20:34;;;;;;;5.53;2.70;;;;;;;;;;5053470;28;20106;-81
2021/08/11 08:23:00;;;;;;;4.85;3.00;;;;;;;;;;5056619;28;20155;-82
2021/08/11 08:25:26;;;;;;;4.43;2.47;;;;;;;;;;5060252;28;20497;-80
2021/08/11 08:27:53;;;;;;;5.47;3.00;;;23.60;99.50;;;;;;5053336;28;20097;-83
2021/08/11 08:30:19;;;;;;;5.47;2.30;;;;;;;;;;5060271;28;20016;-82
2021/08/11 08:32:46;;;;;;;4.68;2.53;;;;;;;;;;5066351;28;20036;-82
2021/08/11 08:35:12;;;;;;;5.32;2.28;;;23.80;97.30;;;;;;5064740;28;20029;-81
2021/08/11 08:37:38;;;;;;;3.25;2.00;;;;;;;;;;5070451;28;20157;-81
2021/08/11 08:40:10;;;;;;;3.78;2.10;;;23.90;97.70;;;;;;5056526;28;20029;-81
2021/08/11 08:42:40;;;;;;;5.55;2.08;;;24.00;95.90;;;;;;5059465;28;20092;-81
2021/08/11 08:45:07;;;;;;;4.50;1.88;;;24.00;95.90;;;;;;5061203;28;20058;-81
2021/08/11 08:47:33;;;;;;;4.63;2.58;;;;;;;;;;5056613;28;20092;-80
2021/08/11 08:50:03;;;;;;;4.72;2.40;;;24.00;95.90;;;;;;5055675;28;20311;-80
2021/08/11 08:52:29;;;;;;;;;;;24.20;96.00;;;;;;5062793;28;20497;-79
2021/08/11 08:54:58;;;;;;;4.18;2.20;;;24.40;95.80;;;;;;5057303;28;19920;-79
2021/08/11 08:57:24;;;;;;;5.70;2.20;;;;;;;;;;5058978;28;20033;-81
2021/08/11 08:59:50;;;;;;;4.40;2.63;;;;;;;;;;5048860;28;20037;-82
2021/08/11 09:02:16;;;;;;;4.85;2.35;;;24.30;96.20;;;;;;5050492;28;20025;-81
2021/08/11 09:04:42;;;;;;;5.53;3.05;;;;;;;;;;5043608;28;20033;-81
2021/08/11 09:07:16;;;;;;;4.63;2.45;;;24.70;95.80;;;;;;5075697;28;20064;-81
2021/08/11 09:09:43;;;;;;;4.93;2.45;;;25.10;95.70;;;;;;5056354;28;20052;-79
2021/08/11 09:12:09;;;;;;;4.88;2.47;;;25.50;94.80;;;;;;5058315;28;20424;-82
2021/08/11 09:14:37;;;;;;;6.38;2.78;;;25.70;94.00;;;;;;5048946;28;20021;-82
2021/08/11 09:17:03;;;;;;;5.50;2.30;;;25.70;93.90;;;;;;5049725;28;20030;-80
2021/08/11 09:19:42;;;;;;;3.88;2.40;;;25.70;94.00;;;;;;5055991;28;20028;-82
2021/08/11 09:22:09;;;;;;;5.32;2.58;;;25.80;93.30;;;;;;5053408;28;20056;-81
2021/08/11 09:24:37;;;;;;;3.10;2.10;;;25.80;93.40;;;;;;5063796;28;20081;-79
2021/08/11 09:27:20;;;;;;;4.38;2.40;;;;;;;;;;5066033;28;20112;-79
2021/08/11 09:30:08;;;;;;;5.53;2.33;;;26.10;92.90;;;;;;5053166;28;20037;-81
2021/08/11 09:33:04;;;;;;;4.43;2.70;;;26.30;92.70;;;;;;5068128;28;20028;-79
2021/08/11 09:35:32;;;;;;;4.95;2.40;;;26.50;92.30;;;;;;5066400;28;20036;-81
2021/08/11 09:38:05;;;;;;;3.78;2.35;;;26.30;92.20;;;;;;5074218;28;20021;-81
2021/08/11 09:40:33;;;;;;;5.72;2.30;;;26.20;92.20;;;;;;5055832;28;20112;-81
2021/08/11 09:43:03;;;;;;;4.43;2.35;;;26.20;92.40;;;;;;5063311;28;20101;-80
2021/08/11 09:45:52;;;;;;;4.68;2.55;;;25.80;92.50;;;;;;5061295;28;20482;-81
2021/08/11 09:48:20;;;;;;;4.45;2.15;;;25.60;92.90;;;;;;5057806;28;20056;-81
2021/08/11 09:50:46;;;;;;;6.07;2.20;;;;;;;;;;5066201;28;20029;-80
2021/08/11 09:53:18;;;;;;;5.25;2.60;;;25.70;93.40;;;;;;5054283;28;20044;-81
2021/08/11 09:56:10;;;;;;;5.43;1.95;;;25.70;93.30;;;;;;5057904;28;20033;-80
2021/08/11 09:58:39;;;;;;;3.60;2.17;;;26.00;92.00;;;;;;5067088;28;20493;-81
2021/08/11 10:01:11;;;;;;;3.95;1.90;;;26.10;91.60;;;;;;5055182;28;20033;-81
2021/08/11 10:04:02;;;;;;;4.68;2.15;;;26.30;91.50;;;;;;5062433;28;20079;-79
2021/08/11 10:06:30;;;;;;;4.40;2.10;;;26.30;90.60;;;;;;5045944;28;20081;-81
2021/08/11 10:09:15;;;;;;;3.25;1.88;;;26.60;90.50;;;;;;5058881;28;20026;-83
2021/08/11 10:12:02;;;;;;;3.53;1.48;;;26.70;88.50;;;;;;5061459;28;20028;-80
2021/08/11 10:14:30;;;;;;;3.85;2.00;;;26.80;87.50;;;;;;5057854;28;20045;-80
2021/08/11 10:16:58;;;;;;;2.65;1.67;;;27.10;87.20;;;;;;5072972;28;20033;-80
2021/08/11 10:19:27;;;;;;;2.55;1.50;;;27.20;87.90;;;;;;5055165;28;20461;-81
2021/08/11 10:21:53;;;;;;;3.17;1.50;;;;;;;;;;5058404;28;20029;-80
2021/08/11 10:24:19;;;;;;;3.13;1.50;;;;;;;;;;5050722;28;20029;-82
2021/08/11 10:26:48;;;;;;;3.33;1.83;;;26.90;86.10;;;;;;5057081;28;20094;-80
2021/08/11 10:29:16;;;;;;;4.27;1.80;;;26.70;87.20;;;;;;5066517;28;20033;-80
2021/08/11 10:31:42;;;;;;;4.90;1.83;;;;;;;;;;5056571;28;20029;-80
2021/08/11 10:34:11;;;;;;;2.97;1.50;;;26.30;86.30;;;;;;5066482;28;20033;-81
2021/08/11 10:36:41;;;;;;;3.28;1.70;;;26.00;88.10;;;;;;5059276;28;20025;-79
2021/08/11 10:39:06;;;;;;;3.22;1.80;;;25.90;88.90;;;;;;5064068;28;20037;-81
2021/08/11 10:41:34;;;;;;;2.22;1.50;;;26.00;87.70;;;;;;5062332;28;20383;-83
2021/08/11 10:44:01;;;;;;;5.22;1.80;;;26.00;88.90;;;;;;5055614;28;20033;-80
2021/08/11 10:46:42;;;;;;;3.22;1.65;;;26.00;88.00;;;;;;5053246;28;20505;-81
2021/08/11 10:49:08;;;;;;;3.08;1.75;;;26.00;87.80;;;;;;5060750;28;20044;-81
2021/08/11 10:51:45;;;;;;;5.05;2.40;;;;;;;;;;5070176;28;20025;-82
2021/08/11 10:54:13;;;;;;;6.10;1.98;;;26.10;88.40;;;;;;5062699;28;20037;-80
2021/08/11 10:56:44;;;;;;;3.40;1.85;;;26.10;88.50;;;;;;5056550;28;20033;-81
2021/08/11 10:59:22;;;;;;;5.32;2.20;;;26.30;88.80;;;;;;5062485;28;20067;-80
2021/08/11 11:01:58;;;;;;;5.65;2.70;;;26.40;88.70;;;;;;5062360;28;20099;-79
2021/08/11 11:04:41;;;;;;;4.07;2.10;;;26.60;87.40;;;;;;5060850;28;20020;-81
2021/08/11 11:07:10;;;;;;;3.90;2.13;;;26.90;86.70;;;;;;5044975;28;20033;-80
2021/08/11 11:09:36;;;;;;;3.37;1.90;;;;;;;;;;5058627;28;20513;-80
2021/08/11 11:12:17;;;;;;;4.22;2.33;;;27.00;82.70;;;;;;5052875;28;20037;-80
2021/08/11 11:15:00;;;;;;;4.90;2.42;;;27.00;83.00;;;;;;5057425;28;20029;-80
2021/08/11 11:17:29;;;;;;;5.97;2.08;;;;;;;;;;5054819;28;20388;-79
2021/08/11 11:20:08;;;;;;;4.00;1.90;;;27.30;82.70;;;;;;5060224;28;20064;-80
2021/08/11 11:22:42;;;;;;;4.88;2.70;;;27.10;82.90;;;;;;5046624;28;20033;-81
2021/08/11 11:25:10;;;;;;;4.18;2.30;;;27.10;83.00;;;;;;5040736;28;20022;-81
2021/08/11 11:27:39;;;;;;;4.13;2.10;;;27.30;83.70;;;;;;5045483;28;20112;-79
2021/08/11 11:30:06;;;;;;;3.50;2.20;;;27.30;83.80;;;;;;5055581;28;20064;-79
2021/08/11 11:32:32;;;;;;;5.82;2.30;;;;;;;;;;5052751;28;20025;-81
2021/08/11 11:35:18;;;;;;;4.72;2.30;;;27.70;82.30;;;;;;5052672;28;20106;-79
2021/08/11 11:37:45;;;;;;;4.97;2.30;;;27.80;81.60;;;;;;5056865;28;20037;-80
2021/08/11 11:40:15;;;;;;;5.03;2.42;;;27.80;82.20;;;;;;5056286;28;20036;-83
2021/08/11 11:42:42;;;;;;;4.70;2.47;;;27.90;81.30;;;;;;5060214;28;20029;-80
2021/08/11 11:45:10;;;;;;;4.18;1.80;;;27.80;82.00;;;;;;5061624;28;20051;-78
2021/08/11 11:47:44;;;;;;;4.88;2.75;;;;;;;;;;5056106;28;20030;-80
2021/08/11 11:50:22;;;;;;;5.97;2.25;;;27.90;81.30;;;;;;5052314;28;20027;-78
2021/08/11 11:52:48;;;;;;;3.35;2.10;;;;;;;;;;5062912;28;20033;-80
2021/08/11 11:55:25;;;;;;;4.03;1.95;;;27.80;80.30;;;;;;5054916;28;20064;-80
2021/08/11 11:57:52;;;;;;;4.80;2.45;;;27.70;81.30;;;;;;5052213;28;20399;-80
2021/08/11 12:00:19;;;;;;;3.70;2.17;;;27.70;81.80;;;;;;5063097;28;20020;-79
2021/08/11 12:02:50;;;;;;;5.03;2.10;;;27.40;81.30;;;;;;5077638;28;20018;-79
2021/08/11 12:05:15;;;;;;;4.65;2.17;;;27.40;81.20;;;;;;5047462;28;20036;-79
2021/08/11 12:07:41;;;;;;;5.55;2.22;;;;;;;;;;5047018;28;20569;-80
2021/08/11 12:10:07;;;;;;;7.18;2.20;;;27.50;81.70;;;;;;5060095;28;20076;-80
2021/08/11 12:12:33;;;;;;;4.03;1.90;;;;;;;;;;5063587;28;20040;-82
2021/08/11 12:15:21;;;;;;;4.95;2.20;;;27.60;80.30;;;;;;5065206;28;20278;-81
2021/08/11 12:17:47;;;;;;;4.85;2.22;;;28.20;78.50;;;;;;5060294;28;20029;-81
2021/08/11 12:20:24;;;;;;;4.60;2.42;;;28.40;78.80;;;;;;5060355;28;20025;-81
2021/08/11 12:22:50;;;;;;;3.45;1.80;;;28.50;77.50;;;;;;5060152;28;20562;-82
2021/08/11 12:25:29;;;;;;;3.80;2.08;;;28.50;78.70;;;;;;5060842;28;20060;-80
2021/08/11 12:28:12;;;;;;;4.47;2.10;;;28.40;77.10;;;;;;5052816;28;20029;-81
2021/08/11 12:30:41;;;;;;;4.80;2.08;;;28.40;75.90;;;;;;5052058;28;20029;-80
2021/08/11 12:33:08;;;;;;;7.18;2.30;;;28.20;76.20;;;;;;5059001;28;20079;-80
2021/08/11 12:35:41;;;;;;;3.53;1.83;;;28.40;75.60;;;;;;5060960;28;20442;-80
2021/08/11 12:38:07;;;;;;;3.33;2.10;;;;;;;;;;5057176;28;20025;-77
2021/08/11 12:40:35;;;;;;;3.97;2.20;;;28.50;73.70;;;;;;5065679;28;20025;-81
2021/08/11 12:43:02;;;;;;;3.85;2.20;;;28.50;74.10;;;;;;5061593;28;20099;-78
2021/08/11 12:45:48;;;;;;;4.38;2.40;;;28.80;75.50;;;;;;5059874;28;20032;-80
2021/08/11 12:48:30;;;;;;;4.72;2.28;;;28.80;72.60;;;;;;5051601;28;20506;-81
2021/08/11 12:50:58;;;;;;;3.75;1.85;;;28.80;73.40;;;;;;5046363;28;20049;-81
2021/08/11 12:53:33;;;;;;;4.18;2.20;;;28.80;72.60;;;;;;5055038;28;20029;-80
2021/08/11 12:56:09;;;;;;;5.53;2.05;;;28.80;73.10;;;;;;5060225;28;20017;-80
2021/08/11 12:58:56;;;;;;;3.90;2.20;;;28.50;73.20;;;;;;5054814;28;20055;-81
2021/08/11 13:01:33;;;;;;;3.83;2.20;;;28.40;73.60;;;;;;5047571;28;20100;-81
2021/08/11 13:03:59;;;;;;;4.40;2.20;;;28.00;73.20;;;;;;5049064;28;20026;-82
2021/08/11 13:06:39;;;;;;;5.00;2.40;;;27.80;74.60;;;;;;5054160;28;20083;-79
2021/08/11 13:09:16;;;;;;;4.45;2.33;;;28.00;75.20;;;;;;5048682;28;20182;-82
2021/08/11 13:11:52;;;;;;;4.47;2.08;;;28.10;75.20;;;;;;5052415;28;20029;-82
2021/08/11 13:14:43;;;;;;;4.05;2.53;;;28.40;74.20;;;;;;5045028;28;20087;-82
2021/08/11 13:17:09;;;;;;;5.10;1.92;;;28.50;75.00;;;;;;5048147;28;20028;-81
2021/08/11 13:19:35;;;;;;;3.70;2.10;;;28.60;73.10;;;;;;5047131;28;20113;-81
2021/08/11 13:22:01;;;;;;;5.25;2.03;;;28.60;72.50;;;;;;5049121;28;20499;-81
2021/08/11 13:24:26;;;;;;;5.60;2.88;;;28.50;72.30;;;;;;5050591;28;20025;-81
2021/08/11 13:26:57;;;;;;;4.38;2.30;;;28.50;72.40;;;;;;5051049;28;20064;-82
2021/08/11 13:29:28;;;;;;;5.47;2.50;;;28.40;72.40;;;;;;5047405;28;20033;-83
2021/08/11 13:31:55;;;;;;;4.18;2.20;;;28.40;73.70;;;;;;5051319;28;20029;-82
2021/08/11 13:34:22;;;;;;;4.57;2.47;;;;;;;;;;5046854;28;20504;-81